sensor_id;sensor_type;location;lat;lon;timestamp;P1;durP1;ratioP1;P2;durP2;ratioP2
76256;SDS011;65074;50.436;8.672;2023-10-13T00:00:28;7.22;;;4.18;;
76256;SDS011;65074;50.436;8.672;2023-10-13T00:02:58;7.55;;;4.28;;
76256;SDS011;65074;50.436;8.672;2023-10-13T00:05:27;6.30;;;3.97;;
76256;SDS011;65074;50.436;8.672;2023-10-13T00:07:59;5.47;;;3.58;;
76256;SDS011;65074;50.436;8.672;2023-10-13T00:10:28;7.70;;;4.25;;
76256;SDS011;65074;50.436;8.672;2023-10-13T00:12:57;5.57;;;3.65;;
76256;SDS011;65074;50.436;8.672;2023-10-13T00:15:32;5.97;;;3.80;;
76256;SDS011;65074;50.436;8.672;2023-10-13T00:18:06;6.70;;;4.20;;
76256;SDS011;65074;50.436;8.672;2023-10-13T00:20:46;8.65;;;4.50;;
76256;SDS011;65074;50.436;8.672;2023-10-13T00:23:14;6.90;;;4.00;;
76256;SDS011;65074;50.436;8.672;2023-10-13T00:25:39;8.00;;;3.97;;
76256;SDS011;65074;50.436;8.672;2023-10-13T00:28:14;7.97;;;4.10;;
76256;SDS011;65074;50.436;8.672;2023-10-13T00:30:48;7.82;;;3.47;;
76256;SDS011;65074;50.436;8.672;2023-10-13T00:35:47;8.30;;;3.65;;
76256;SDS011;65074;50.436;8.672;2023-10-13T00:38:16;5.60;;;3.97;;
76256;SDS011;65074;50.436;8.672;2023-10-13T00:40:44;6.93;;;4.28;;
76256;SDS011;65074;50.436;8.672;2023-10-13T00:43:20;8.10;;;4.70;;
76256;SDS011;65074;50.436;8.672;2023-10-13T00:45:51;7.63;;;4.45;;
76256;SDS011;65074;50.436;8.672;2023-10-13T00:50:58;4.57;;;3.17;;
76256;SDS011;65074;50.436;8.672;2023-10-13T00:53:28;7.22;;;3.72;;
76256;SDS011;65074;50.436;8.672;2023-10-13T00:55:58;7.93;;;3.30;;
76256;SDS011;65074;50.436;8.672;2023-10-13T00:58:31;5.88;;;3.85;;
76256;SDS011;65074;50.436;8.672;2023-10-13T01:00:59;6.38;;;4.25;;
76256;SDS011;65074;50.436;8.672;2023-10-13T01:03:46;6.55;;;3.42;;
76256;SDS011;65074;50.436;8.672;2023-10-13T01:06:14;6.03;;;3.38;;
76256;SDS011;65074;50.436;8.672;2023-10-13T01:08:42;6.22;;;3.45;;
76256;SDS011;65074;50.436;8.672;2023-10-13T01:11:10;7.13;;;4.78;;
76256;SDS011;65074;50.436;8.672;2023-10-13T01:13:35;7.15;;;3.47;;
76256;SDS011;65074;50.436;8.672;2023-10-13T01:16:02;7.00;;;4.05;;
76256;SDS011;65074;50.436;8.672;2023-10-13T01:18:32;7.80;;;4.07;;
76256;SDS011;65074;50.436;8.672;2023-10-13T01:21:05;8.05;;;3.58;;
76256;SDS011;65074;50.436;8.672;2023-10-13T01:23:31;9.60;;;3.70;;
76256;SDS011;65074;50.436;8.672;2023-10-13T01:26:03;6.47;;;3.85;;
76256;SDS011;65074;50.436;8.672;2023-10-13T01:28:30;8.63;;;3.95;;
76256;SDS011;65074;50.436;8.672;2023-10-13T01:31:02;6.25;;;3.85;;
76256;SDS011;65074;50.436;8.672;2023-10-13T01:33:28;8.65;;;4.18;;
76256;SDS011;65074;50.436;8.672;2023-10-13T01:35:57;7.63;;;4.03;;
76256;SDS011;65074;50.436;8.672;2023-10-13T01:38:23;6.38;;;3.90;;
76256;SDS011;65074;50.436;8.672;2023-10-13T01:40:53;5.65;;;3.88;;
76256;SDS011;65074;50.436;8.672;2023-10-13T01:43:18;8.68;;;3.30;;
76256;SDS011;65074;50.436;8.672;2023-10-13T01:45:43;5.50;;;3.85;;
76256;SDS011;65074;50.436;8.672;2023-10-13T01:48:12;7.22;;;3.78;;
76256;SDS011;65074;50.436;8.672;2023-10-13T01:50:41;6.50;;;3.40;;
76256;SDS011;65074;50.436;8.672;2023-10-13T01:53:07;8.27;;;3.92;;
76256;SDS011;65074;50.436;8.672;2023-10-13T01:55:45;5.57;;;3.65;;
76256;SDS011;65074;50.436;8.672;2023-10-13T01:58:14;6.50;;;4.18;;
76256;SDS011;65074;50.436;8.672;2023-10-13T02:00:43;7.13;;;3.67;;
76256;SDS011;65074;50.436;8.672;2023-10-13T02:03:12;5.32;;;3.83;;
76256;SDS011;65074;50.436;8.672;2023-10-13T02:05:45;6.68;;;4.38;;
76256;SDS011;65074;50.436;8.672;2023-10-13T02:08:15;6.63;;;4.35;;
76256;SDS011;65074;50.436;8.672;2023-10-13T02:10:51;4.20;;;3.08;;
76256;SDS011;65074;50.436;8.672;2023-10-13T02:13:17;5.85;;;3.30;;
76256;SDS011;65074;50.436;8.672;2023-10-13T02:15:45;6.75;;;3.35;;
76256;SDS011;65074;50.436;8.672;2023-10-13T02:18:14;8.55;;;4.00;;
76256;SDS011;65074;50.436;8.672;2023-10-13T02:20:51;8.75;;;4.25;;
76256;SDS011;65074;50.436;8.672;2023-10-13T02:23:40;5.43;;;3.60;;
76256;SDS011;65074;50.436;8.672;2023-10-13T02:26:11;6.28;;;3.90;;
76256;SDS011;65074;50.436;8.672;2023-10-13T02:28:40;7.95;;;4.28;;
76256;SDS011;65074;50.436;8.672;2023-10-13T02:31:05;5.55;;;3.40;;
76256;SDS011;65074;50.436;8.672;2023-10-13T02:33:32;7.38;;;4.10;;
76256;SDS011;65074;50.436;8.672;2023-10-13T02:35:58;6.20;;;3.55;;
76256;SDS011;65074;50.436;8.672;2023-10-13T02:38:29;8.23;;;3.90;;
76256;SDS011;65074;50.436;8.672;2023-10-13T02:41:04;10.77;;;3.92;;
76256;SDS011;65074;50.436;8.672;2023-10-13T02:43:36;7.53;;;4.38;;
76256;SDS011;65074;50.436;8.672;2023-10-13T02:46:03;4.82;;;2.97;;
76256;SDS011;65074;50.436;8.672;2023-10-13T02:48:29;6.95;;;4.10;;
76256;SDS011;65074;50.436;8.672;2023-10-13T02:51:05;6.00;;;3.58;;
76256;SDS011;65074;50.436;8.672;2023-10-13T02:53:43;7.43;;;4.13;;
76256;SDS011;65074;50.436;8.672;2023-10-13T02:56:13;7.85;;;4.63;;
76256;SDS011;65074;50.436;8.672;2023-10-13T02:58:45;5.18;;;3.67;;
76256;SDS011;65074;50.436;8.672;2023-10-13T03:01:18;8.02;;;4.43;;
76256;SDS011;65074;50.436;8.672;2023-10-13T03:03:48;8.85;;;4.68;;
76256;SDS011;65074;50.436;8.672;2023-10-13T03:06:17;6.97;;;3.80;;
76256;SDS011;65074;50.436;8.672;2023-10-13T03:08:46;6.90;;;3.97;;
76256;SDS011;65074;50.436;8.672;2023-10-13T03:11:12;5.57;;;3.60;;
76256;SDS011;65074;50.436;8.672;2023-10-13T03:13:39;9.32;;;4.32;;
76256;SDS011;65074;50.436;8.672;2023-10-13T03:16:11;7.32;;;3.20;;
76256;SDS011;65074;50.436;8.672;2023-10-13T03:18:37;8.70;;;4.07;;
76256;SDS011;65074;50.436;8.672;2023-10-13T03:21:03;5.03;;;3.42;;
76256;SDS011;65074;50.436;8.672;2023-10-13T03:23:28;6.47;;;3.25;;
76256;SDS011;65074;50.436;8.672;2023-10-13T03:25:56;5.22;;;3.50;;
76256;SDS011;65074;50.436;8.672;2023-10-13T03:28:21;6.40;;;3.75;;
76256;SDS011;65074;50.436;8.672;2023-10-13T03:30:50;6.97;;;4.03;;
76256;SDS011;65074;50.436;8.672;2023-10-13T03:33:18;5.55;;;3.53;;
76256;SDS011;65074;50.436;8.672;2023-10-13T03:35:53;4.95;;;3.05;;
76256;SDS011;65074;50.436;8.672;2023-10-13T03:38:19;8.82;;;4.03;;
76256;SDS011;65074;50.436;8.672;2023-10-13T03:40:46;5.97;;;3.70;;
76256;SDS011;65074;50.436;8.672;2023-10-13T03:43:21;7.13;;;3.53;;
76256;SDS011;65074;50.436;8.672;2023-10-13T03:45:49;5.85;;;3.40;;
76256;SDS011;65074;50.436;8.672;2023-10-13T03:48:33;5.15;;;3.65;;
76256;SDS011;65074;50.436;8.672;2023-10-13T03:51:05;5.00;;;3.63;;
76256;SDS011;65074;50.436;8.672;2023-10-13T03:53:40;5.28;;;3.38;;
76256;SDS011;65074;50.436;8.672;2023-10-13T03:56:19;6.97;;;3.80;;
76256;SDS011;65074;50.436;8.672;2023-10-13T03:59:04;6.15;;;2.97;;
76256;SDS011;65074;50.436;8.672;2023-10-13T04:01:39;4.38;;;3.20;;
76256;SDS011;65074;50.436;8.672;2023-10-13T04:04:13;8.13;;;3.90;;
76256;SDS011;65074;50.436;8.672;2023-10-13T04:06:59;5.90;;;3.45;;
76256;SDS011;65074;50.436;8.672;2023-10-13T04:09:38;6.47;;;3.63;;
76256;SDS011;65074;50.436;8.672;2023-10-13T04:12:12;6.78;;;3.25;;
76256;SDS011;65074;50.436;8.672;2023-10-13T04:14:38;7.40;;;4.60;;
76256;SDS011;65074;50.436;8.672;2023-10-13T04:17:11;9.23;;;4.03;;
76256;SDS011;65074;50.436;8.672;2023-10-13T04:19:40;7.82;;;4.05;;
76256;SDS011;65074;50.436;8.672;2023-10-13T04:22:25;6.97;;;3.00;;
76256;SDS011;65074;50.436;8.672;2023-10-13T04:25:22;6.07;;;3.65;;
76256;SDS011;65074;50.436;8.672;2023-10-13T04:28:17;6.60;;;4.22;;
76256;SDS011;65074;50.436;8.672;2023-10-13T04:30:51;6.72;;;3.65;;
76256;SDS011;65074;50.436;8.672;2023-10-13T04:33:20;5.18;;;3.85;;
76256;SDS011;65074;50.436;8.672;2023-10-13T04:36:08;8.80;;;3.95;;
76256;SDS011;65074;50.436;8.672;2023-10-13T04:38:52;6.53;;;3.13;;
76256;SDS011;65074;50.436;8.672;2023-10-13T04:41:25;6.32;;;4.10;;
76256;SDS011;65074;50.436;8.672;2023-10-13T04:44:16;5.25;;;3.28;;
76256;SDS011;65074;50.436;8.672;2023-10-13T04:46:48;6.70;;;3.50;;
76256;SDS011;65074;50.436;8.672;2023-10-13T04:49:13;6.43;;;3.60;;
76256;SDS011;65074;50.436;8.672;2023-10-13T04:52:01;5.18;;;3.55;;
76256;SDS011;65074;50.436;8.672;2023-10-13T04:54:34;6.60;;;3.75;;
76256;SDS011;65074;50.436;8.672;2023-10-13T04:57:12;7.43;;;4.70;;
76256;SDS011;65074;50.436;8.672;2023-10-13T04:59:56;9.32;;;3.40;;
76256;SDS011;65074;50.436;8.672;2023-10-13T05:02:40;8.70;;;4.07;;
76256;SDS011;65074;50.436;8.672;2023-10-13T05:05:10;11.43;;;5.18;;
76256;SDS011;65074;50.436;8.672;2023-10-13T05:07:40;7.47;;;4.45;;
76256;SDS011;65074;50.436;8.672;2023-10-13T05:10:24;6.93;;;4.47;;
76256;SDS011;65074;50.436;8.672;2023-10-13T05:13:08;6.40;;;4.35;;
76256;SDS011;65074;50.436;8.672;2023-10-13T05:15:53;5.55;;;4.43;;
76256;SDS011;65074;50.436;8.672;2023-10-13T05:18:37;8.70;;;4.38;;
76256;SDS011;65074;50.436;8.672;2023-10-13T05:21:21;8.13;;;4.07;;
76256;SDS011;65074;50.436;8.672;2023-10-13T05:24:05;8.35;;;4.70;;
76256;SDS011;65074;50.436;8.672;2023-10-13T05:26:49;10.75;;;4.78;;
76256;SDS011;65074;50.436;8.672;2023-10-13T05:29:33;10.13;;;5.28;;
76256;SDS011;65074;50.436;8.672;2023-10-13T05:32:17;9.75;;;4.47;;
76256;SDS011;65074;50.436;8.672;2023-10-13T05:35:01;9.10;;;4.50;;
76256;SDS011;65074;50.436;8.672;2023-10-13T05:37:45;8.02;;;4.47;;
76256;SDS011;65074;50.436;8.672;2023-10-13T05:40:29;8.70;;;5.40;;
76256;SDS011;65074;50.436;8.672;2023-10-13T05:43:13;8.10;;;4.75;;
76256;SDS011;65074;50.436;8.672;2023-10-13T05:46:00;11.38;;;4.53;;
76256;SDS011;65074;50.436;8.672;2023-10-13T05:48:45;8.88;;;4.68;;
76256;SDS011;65074;50.436;8.672;2023-10-13T05:51:22;7.97;;;5.05;;
76256;SDS011;65074;50.436;8.672;2023-10-13T05:54:09;6.90;;;4.63;;
76256;SDS011;65074;50.436;8.672;2023-10-13T05:59:23;9.35;;;4.55;;
76256;SDS011;65074;50.436;8.672;2023-10-13T06:02:07;8.77;;;5.10;;
76256;SDS011;65074;50.436;8.672;2023-10-13T06:04:51;8.10;;;4.70;;
76256;SDS011;65074;50.436;8.672;2023-10-13T06:07:35;7.30;;;4.38;;
76256;SDS011;65074;50.436;8.672;2023-10-13T06:10:19;7.45;;;3.92;;
76256;SDS011;65074;50.436;8.672;2023-10-13T06:13:03;6.72;;;4.05;;
76256;SDS011;65074;50.436;8.672;2023-10-13T06:15:47;8.77;;;4.80;;
76256;SDS011;65074;50.436;8.672;2023-10-13T06:18:44;10.02;;;4.55;;
76256;SDS011;65074;50.436;8.672;2023-10-13T06:21:28;10.23;;;5.28;;
76256;SDS011;65074;50.436;8.672;2023-10-13T06:24:12;11.25;;;5.35;;
76256;SDS011;65074;50.436;8.672;2023-10-13T06:27:03;10.02;;;4.43;;
76256;SDS011;65074;50.436;8.672;2023-10-13T06:29:47;5.30;;;3.92;;
76256;SDS011;65074;50.436;8.672;2023-10-13T06:32:14;9.07;;;4.53;;
76256;SDS011;65074;50.436;8.672;2023-10-13T06:34:41;5.97;;;3.63;;
76256;SDS011;65074;50.436;8.672;2023-10-13T06:37:16;10.25;;;5.13;;
76256;SDS011;65074;50.436;8.672;2023-10-13T06:39:49;8.07;;;4.45;;
76256;SDS011;65074;50.436;8.672;2023-10-13T06:42:15;7.28;;;4.53;;
76256;SDS011;65074;50.436;8.672;2023-10-13T06:44:42;8.25;;;4.13;;
76256;SDS011;65074;50.436;8.672;2023-10-13T06:49:36;6.93;;;3.97;;
76256;SDS011;65074;50.436;8.672;2023-10-13T06:52:04;7.90;;;3.90;;
76256;SDS011;65074;50.436;8.672;2023-10-13T06:54:32;8.30;;;4.43;;
76256;SDS011;65074;50.436;8.672;2023-10-13T06:57:00;4.60;;;3.05;;
76256;SDS011;65074;50.436;8.672;2023-10-13T06:59:29;5.72;;;3.30;;
76256;SDS011;65074;50.436;8.672;2023-10-13T07:01:58;5.63;;;3.20;;
76256;SDS011;65074;50.436;8.672;2023-10-13T07:04:30;6.40;;;3.95;;
76256;SDS011;65074;50.436;8.672;2023-10-13T07:06:55;6.25;;;3.53;;
76256;SDS011;65074;50.436;8.672;2023-10-13T07:09:21;7.97;;;3.38;;
76256;SDS011;65074;50.436;8.672;2023-10-13T07:12:04;6.30;;;2.97;;
76256;SDS011;65074;50.436;8.672;2023-10-13T07:15:03;6.43;;;2.72;;
76256;SDS011;65074;50.436;8.672;2023-10-13T07:17:47;5.93;;;2.97;;
76256;SDS011;65074;50.436;8.672;2023-10-13T07:20:19;11.38;;;2.92;;
76256;SDS011;65074;50.436;8.672;2023-10-13T07:22:54;6.40;;;2.50;;
76256;SDS011;65074;50.436;8.672;2023-10-13T07:25:31;5.32;;;3.38;;
76256;SDS011;65074;50.436;8.672;2023-10-13T07:28:00;5.10;;;2.75;;
76256;SDS011;65074;50.436;8.672;2023-10-13T07:30:26;8.95;;;4.22;;
76256;SDS011;65074;50.436;8.672;2023-10-13T07:32:52;6.05;;;3.65;;
76256;SDS011;65074;50.436;8.672;2023-10-13T07:35:18;8.65;;;3.80;;
76256;SDS011;65074;50.436;8.672;2023-10-13T07:37:45;6.10;;;3.65;;
76256;SDS011;65074;50.436;8.672;2023-10-13T07:40:14;9.88;;;4.60;;
76256;SDS011;65074;50.436;8.672;2023-10-13T07:42:51;5.53;;;3.30;;
76256;SDS011;65074;50.436;8.672;2023-10-13T07:45:17;10.63;;;5.90;;
76256;SDS011;65074;50.436;8.672;2023-10-13T07:50:12;6.90;;;5.73;;
76256;SDS011;65074;50.436;8.672;2023-10-13T07:52:37;5.82;;;4.10;;
76256;SDS011;65074;50.436;8.672;2023-10-13T07:55:07;5.95;;;3.80;;
76256;SDS011;65074;50.436;8.672;2023-10-13T07:57:35;7.00;;;4.00;;
76256;SDS011;65074;50.436;8.672;2023-10-13T08:00:00;9.27;;;3.92;;
76256;SDS011;65074;50.436;8.672;2023-10-13T08:03:01;4.93;;;2.78;;
76256;SDS011;65074;50.436;8.672;2023-10-13T08:05:42;5.45;;;3.08;;
76256;SDS011;65074;50.436;8.672;2023-10-13T08:08:24;6.35;;;4.10;;
76256;SDS011;65074;50.436;8.672;2023-10-13T08:11:05;5.95;;;3.10;;
76256;SDS011;65074;50.436;8.672;2023-10-13T08:13:37;7.88;;;3.53;;
76256;SDS011;65074;50.436;8.672;2023-10-13T08:16:05;6.20;;;3.72;;
76256;SDS011;65074;50.436;8.672;2023-10-13T08:18:34;9.90;;;3.80;;
76256;SDS011;65074;50.436;8.672;2023-10-13T08:21:04;6.40;;;2.90;;
76256;SDS011;65074;50.436;8.672;2023-10-13T08:23:30;8.73;;;3.35;;
76256;SDS011;65074;50.436;8.672;2023-10-13T08:26:15;3.72;;;2.55;;
76256;SDS011;65074;50.436;8.672;2023-10-13T08:28:59;3.42;;;2.15;;
76256;SDS011;65074;50.436;8.672;2023-10-13T08:31:43;8.85;;;3.10;;
76256;SDS011;65074;50.436;8.672;2023-10-13T08:34:14;6.45;;;2.88;;
76256;SDS011;65074;50.436;8.672;2023-10-13T08:36:48;6.10;;;2.33;;
76256;SDS011;65074;50.436;8.672;2023-10-13T08:39:13;7.55;;;3.10;;
76256;SDS011;65074;50.436;8.672;2023-10-13T08:42:01;4.28;;;2.72;;
76256;SDS011;65074;50.436;8.672;2023-10-13T08:44:40;5.82;;;3.30;;
76256;SDS011;65074;50.436;8.672;2023-10-13T08:47:12;4.43;;;2.72;;
76256;SDS011;65074;50.436;8.672;2023-10-13T08:49:44;7.00;;;2.58;;
76256;SDS011;65074;50.436;8.672;2023-10-13T08:52:15;5.28;;;2.72;;
76256;SDS011;65074;50.436;8.672;2023-10-13T08:55:01;6.25;;;3.25;;
76256;SDS011;65074;50.436;8.672;2023-10-13T08:57:46;5.47;;;3.20;;
76256;SDS011;65074;50.436;8.672;2023-10-13T09:00:15;4.63;;;2.30;;
76256;SDS011;65074;50.436;8.672;2023-10-13T09:02:53;7.75;;;3.30;;
76256;SDS011;65074;50.436;8.672;2023-10-13T09:05:45;6.07;;;3.97;;
76256;SDS011;65074;50.436;8.672;2023-10-13T09:08:26;8.85;;;3.85;;
76256;SDS011;65074;50.436;8.672;2023-10-13T09:11:09;5.32;;;2.67;;
76256;SDS011;65074;50.436;8.672;2023-10-13T09:13:39;7.03;;;3.72;;
76256;SDS011;65074;50.436;8.672;2023-10-13T09:16:11;5.90;;;2.92;;
76256;SDS011;65074;50.436;8.672;2023-10-13T09:21:26;7.03;;;2.97;;
76256;SDS011;65074;50.436;8.672;2023-10-13T09:24:09;5.55;;;2.65;;
76256;SDS011;65074;50.436;8.672;2023-10-13T09:26:47;5.05;;;2.75;;
76256;SDS011;65074;50.436;8.672;2023-10-13T09:29:15;5.50;;;3.30;;
76256;SDS011;65074;50.436;8.672;2023-10-13T09:31:43;6.07;;;3.28;;
76256;SDS011;65074;50.436;8.672;2023-10-13T09:34:20;6.60;;;3.05;;
76256;SDS011;65074;50.436;8.672;2023-10-13T09:36:48;6.65;;;3.15;;
76256;SDS011;65074;50.436;8.672;2023-10-13T09:39:22;5.30;;;2.70;;
76256;SDS011;65074;50.436;8.672;2023-10-13T09:41:59;8.55;;;3.55;;
76256;SDS011;65074;50.436;8.672;2023-10-13T09:44:25;5.28;;;2.75;;
76256;SDS011;65074;50.436;8.672;2023-10-13T09:46:56;4.40;;;2.80;;
76256;SDS011;65074;50.436;8.672;2023-10-13T09:49:31;5.45;;;3.17;;
76256;SDS011;65074;50.436;8.672;2023-10-13T09:52:14;4.75;;;2.83;;
76256;SDS011;65074;50.436;8.672;2023-10-13T09:55:17;7.20;;;3.42;;
76256;SDS011;65074;50.436;8.672;2023-10-13T09:57:49;7.20;;;2.80;;
76256;SDS011;65074;50.436;8.672;2023-10-13T10:00:23;4.85;;;2.70;;
76256;SDS011;65074;50.436;8.672;2023-10-13T10:03:09;5.50;;;3.10;;
76256;SDS011;65074;50.436;8.672;2023-10-13T10:06:02;3.53;;;2.60;;
76256;SDS011;65074;50.436;8.672;2023-10-13T10:08:42;5.60;;;3.15;;
76256;SDS011;65074;50.436;8.672;2023-10-13T10:19:49;3.15;;;2.40;;
76256;SDS011;65074;50.436;8.672;2023-10-13T10:22:28;4.90;;;2.50;;
76256;SDS011;65074;50.436;8.672;2023-10-13T10:25:05;5.60;;;2.75;;
76256;SDS011;65074;50.436;8.672;2023-10-13T10:27:59;6.38;;;2.70;;
76256;SDS011;65074;50.436;8.672;2023-10-13T10:30:28;5.18;;;3.17;;
76256;SDS011;65074;50.436;8.672;2023-10-13T10:32:55;7.40;;;2.70;;
76256;SDS011;65074;50.436;8.672;2023-10-13T10:35:25;7.70;;;3.10;;
76256;SDS011;65074;50.436;8.672;2023-10-13T10:40:57;5.93;;;2.80;;
76256;SDS011;65074;50.436;8.672;2023-10-13T10:46:17;4.72;;;2.38;;
76256;SDS011;65074;50.436;8.672;2023-10-13T10:48:47;5.65;;;2.92;;
76256;SDS011;65074;50.436;8.672;2023-10-13T10:51:13;4.82;;;2.85;;
76256;SDS011;65074;50.436;8.672;2023-10-13T10:53:46;7.57;;;2.85;;
76256;SDS011;65074;50.436;8.672;2023-10-13T10:56:14;3.72;;;2.47;;
76256;SDS011;65074;50.436;8.672;2023-10-13T10:58:53;6.38;;;2.90;;
76256;SDS011;65074;50.436;8.672;2023-10-13T11:01:28;5.85;;;2.63;;
76256;SDS011;65074;50.436;8.672;2023-10-13T11:04:04;5.32;;;2.70;;
76256;SDS011;65074;50.436;8.672;2023-10-13T11:06:44;5.53;;;3.47;;
76256;SDS011;65074;50.436;8.672;2023-10-13T11:09:11;4.95;;;2.85;;
76256;SDS011;65074;50.436;8.672;2023-10-13T11:11:55;8.18;;;3.17;;
76256;SDS011;65074;50.436;8.672;2023-10-13T11:14:29;5.53;;;2.78;;
76256;SDS011;65074;50.436;8.672;2023-10-13T11:16:55;8.75;;;3.38;;
76256;SDS011;65074;50.436;8.672;2023-10-13T11:19:41;6.13;;;3.15;;
76256;SDS011;65074;50.436;8.672;2023-10-13T11:22:10;6.72;;;2.83;;
76256;SDS011;65074;50.436;8.672;2023-10-13T11:24:54;6.40;;;3.13;;
76256;SDS011;65074;50.436;8.672;2023-10-13T11:27:33;4.68;;;2.83;;
76256;SDS011;65074;50.436;8.672;2023-10-13T11:30:13;4.32;;;2.60;;
76256;SDS011;65074;50.436;8.672;2023-10-13T11:32:41;3.80;;;2.53;;
76256;SDS011;65074;50.436;8.672;2023-10-13T11:35:08;6.88;;;2.60;;
76256;SDS011;65074;50.436;8.672;2023-10-13T11:37:51;7.63;;;2.88;;
76256;SDS011;65074;50.436;8.672;2023-10-13T11:43:24;4.13;;;2.53;;
76256;SDS011;65074;50.436;8.672;2023-10-13T11:45:51;5.25;;;2.83;;
76256;SDS011;65074;50.436;8.672;2023-10-13T11:48:40;3.60;;;2.58;;
76256;SDS011;65074;50.436;8.672;2023-10-13T11:51:12;5.78;;;2.67;;
76256;SDS011;65074;50.436;8.672;2023-10-13T11:53:56;3.63;;;2.42;;
76256;SDS011;65074;50.436;8.672;2023-10-13T11:56:23;6.13;;;2.45;;
76256;SDS011;65074;50.436;8.672;2023-10-13T11:58:49;5.57;;;2.95;;
76256;SDS011;65074;50.436;8.672;2023-10-13T12:01:15;9.45;;;3.15;;
76256;SDS011;65074;50.436;8.672;2023-10-13T12:03:44;4.38;;;2.60;;
76256;SDS011;65074;50.436;8.672;2023-10-13T12:06:29;4.45;;;2.55;;
76256;SDS011;65074;50.436;8.672;2023-10-13T12:11:46;4.13;;;2.53;;
76256;SDS011;65074;50.436;8.672;2023-10-13T12:14:14;4.40;;;2.65;;
76256;SDS011;65074;50.436;8.672;2023-10-13T12:16:44;3.58;;;2.92;;
76256;SDS011;65074;50.436;8.672;2023-10-13T12:19:16;3.63;;;2.40;;
76256;SDS011;65074;50.436;8.672;2023-10-13T12:21:42;3.83;;;2.60;;
76256;SDS011;65074;50.436;8.672;2023-10-13T12:24:09;4.22;;;2.47;;
76256;SDS011;65074;50.436;8.672;2023-10-13T12:26:46;5.85;;;2.60;;
76256;SDS011;65074;50.436;8.672;2023-10-13T12:29:12;7.95;;;2.88;;
76256;SDS011;65074;50.436;8.672;2023-10-13T12:31:47;6.25;;;2.67;;
76256;SDS011;65074;50.436;8.672;2023-10-13T12:34:26;5.60;;;2.63;;
76256;SDS011;65074;50.436;8.672;2023-10-13T12:37:11;3.38;;;2.22;;
76256;SDS011;65074;50.436;8.672;2023-10-13T12:39:57;5.03;;;2.47;;
76256;SDS011;65074;50.436;8.672;2023-10-13T12:42:41;3.67;;;2.05;;
76256;SDS011;65074;50.436;8.672;2023-10-13T12:45:24;5.68;;;2.83;;
76256;SDS011;65074;50.436;8.672;2023-10-13T12:48:08;5.35;;;2.90;;
76256;SDS011;65074;50.436;8.672;2023-10-13T12:50:52;2.95;;;2.25;;
76256;SDS011;65074;50.436;8.672;2023-10-13T12:53:32;3.30;;;2.42;;
76256;SDS011;65074;50.436;8.672;2023-10-13T12:55:58;3.67;;;2.33;;
76256;SDS011;65074;50.436;8.672;2023-10-13T12:58:23;3.88;;;2.58;;
76256;SDS011;65074;50.436;8.672;2023-10-13T13:00:52;4.78;;;2.28;;
76256;SDS011;65074;50.436;8.672;2023-10-13T13:03:26;4.97;;;2.47;;
76256;SDS011;65074;50.436;8.672;2023-10-13T13:05:54;5.38;;;2.50;;
76256;SDS011;65074;50.436;8.672;2023-10-13T13:08:21;7.43;;;2.63;;
76256;SDS011;65074;50.436;8.672;2023-10-13T13:10:47;4.88;;;2.80;;
76256;SDS011;65074;50.436;8.672;2023-10-13T13:13:14;3.00;;;2.40;;
76256;SDS011;65074;50.436;8.672;2023-10-13T13:15:41;5.65;;;2.40;;
76256;SDS011;65074;50.436;8.672;2023-10-13T13:18:07;4.13;;;2.55;;
76256;SDS011;65074;50.436;8.672;2023-10-13T13:23:05;4.03;;;2.45;;
76256;SDS011;65074;50.436;8.672;2023-10-13T13:25:31;4.03;;;2.30;;
76256;SDS011;65074;50.436;8.672;2023-10-13T13:27:58;3.67;;;2.47;;
76256;SDS011;65074;50.436;8.672;2023-10-13T13:30:29;3.33;;;2.08;;
76256;SDS011;65074;50.436;8.672;2023-10-13T13:32:58;4.47;;;2.63;;
76256;SDS011;65074;50.436;8.672;2023-10-13T13:35:29;3.65;;;2.45;;
76256;SDS011;65074;50.436;8.672;2023-10-13T13:38:00;3.50;;;2.28;;
76256;SDS011;65074;50.436;8.672;2023-10-13T13:40:36;3.45;;;1.92;;
76256;SDS011;65074;50.436;8.672;2023-10-13T13:43:02;3.20;;;2.17;;
76256;SDS011;65074;50.436;8.672;2023-10-13T13:45:28;2.90;;;2.00;;
76256;SDS011;65074;50.436;8.672;2023-10-13T13:47:53;8.85;;;5.05;;
76256;SDS011;65074;50.436;8.672;2023-10-13T13:50:22;3.60;;;2.22;;
76256;SDS011;65074;50.436;8.672;2023-10-13T13:52:51;4.18;;;2.20;;
76256;SDS011;65074;50.436;8.672;2023-10-13T13:55:18;3.03;;;1.95;;
76256;SDS011;65074;50.436;8.672;2023-10-13T13:57:43;4.05;;;2.17;;
76256;SDS011;65074;50.436;8.672;2023-10-13T14:00:10;5.18;;;2.75;;
76256;SDS011;65074;50.436;8.672;2023-10-13T14:02:42;4.70;;;2.63;;
76256;SDS011;65074;50.436;8.672;2023-10-13T14:05:12;6.03;;;2.63;;
76256;SDS011;65074;50.436;8.672;2023-10-13T14:07:44;4.18;;;2.63;;
76256;SDS011;65074;50.436;8.672;2023-10-13T14:10:16;4.30;;;2.55;;
76256;SDS011;65074;50.436;8.672;2023-10-13T14:13:00;6.32;;;2.65;;
76256;SDS011;65074;50.436;8.672;2023-10-13T14:15:34;6.63;;;2.92;;
76256;SDS011;65074;50.436;8.672;2023-10-13T14:18:06;9.10;;;4.72;;
76256;SDS011;65074;50.436;8.672;2023-10-13T14:20:32;5.90;;;2.22;;
76256;SDS011;65074;50.436;8.672;2023-10-13T14:23:04;4.93;;;2.72;;
76256;SDS011;65074;50.436;8.672;2023-10-13T14:25:32;4.43;;;2.10;;
76256;SDS011;65074;50.436;8.672;2023-10-13T14:28:03;6.10;;;2.03;;
76256;SDS011;65074;50.436;8.672;2023-10-13T14:30:32;3.00;;;2.15;;
76256;SDS011;65074;50.436;8.672;2023-10-13T14:32:57;4.55;;;2.38;;
76256;SDS011;65074;50.436;8.672;2023-10-13T14:35:23;3.97;;;1.80;;
76256;SDS011;65074;50.436;8.672;2023-10-13T14:37:51;6.57;;;2.65;;
76256;SDS011;65074;50.436;8.672;2023-10-13T14:40:17;5.38;;;2.08;;
76256;SDS011;65074;50.436;8.672;2023-10-13T14:42:46;2.40;;;1.75;;
76256;SDS011;65074;50.436;8.672;2023-10-13T14:45:12;3.88;;;1.95;;
76256;SDS011;65074;50.436;8.672;2023-10-13T14:47:42;3.55;;;1.88;;
76256;SDS011;65074;50.436;8.672;2023-10-13T14:50:09;3.50;;;2.33;;
76256;SDS011;65074;50.436;8.672;2023-10-13T14:52:46;4.43;;;2.28;;
76256;SDS011;65074;50.436;8.672;2023-10-13T14:55:14;3.22;;;2.47;;
76256;SDS011;65074;50.436;8.672;2023-10-13T14:57:49;3.05;;;1.63;;
76256;SDS011;65074;50.436;8.672;2023-10-13T15:00:15;5.47;;;2.38;;
76256;SDS011;65074;50.436;8.672;2023-10-13T15:02:49;3.17;;;2.05;;
76256;SDS011;65074;50.436;8.672;2023-10-13T15:05:16;4.18;;;2.15;;
76256;SDS011;65074;50.436;8.672;2023-10-13T15:07:44;2.78;;;1.83;;
76256;SDS011;65074;50.436;8.672;2023-10-13T15:10:16;3.45;;;2.08;;
76256;SDS011;65074;50.436;8.672;2023-10-13T15:12:42;4.00;;;2.40;;
76256;SDS011;65074;50.436;8.672;2023-10-13T15:15:09;4.60;;;2.00;;
76256;SDS011;65074;50.436;8.672;2023-10-13T15:17:38;3.88;;;1.75;;
76256;SDS011;65074;50.436;8.672;2023-10-13T15:20:05;4.43;;;2.60;;
76256;SDS011;65074;50.436;8.672;2023-10-13T15:27:34;3.15;;;2.03;;
76256;SDS011;65074;50.436;8.672;2023-10-13T15:30:06;4.03;;;1.98;;
76256;SDS011;65074;50.436;8.672;2023-10-13T15:32:45;3.85;;;1.88;;
76256;SDS011;65074;50.436;8.672;2023-10-13T15:35:10;4.28;;;2.22;;
76256;SDS011;65074;50.436;8.672;2023-10-13T15:37:38;3.08;;;1.90;;
76256;SDS011;65074;50.436;8.672;2023-10-13T15:40:03;4.18;;;2.65;;
76256;SDS011;65074;50.436;8.672;2023-10-13T15:42:29;4.47;;;2.30;;
76256;SDS011;65074;50.436;8.672;2023-10-13T15:44:55;3.45;;;2.42;;
76256;SDS011;65074;50.436;8.672;2023-10-13T15:47:21;4.38;;;2.58;;
76256;SDS011;65074;50.436;8.672;2023-10-13T15:49:46;4.45;;;1.98;;
76256;SDS011;65074;50.436;8.672;2023-10-13T15:52:12;4.35;;;2.63;;
76256;SDS011;65074;50.436;8.672;2023-10-13T15:54:41;5.13;;;2.20;;
76256;SDS011;65074;50.436;8.672;2023-10-13T15:57:07;3.47;;;1.90;;
76256;SDS011;65074;50.436;8.672;2023-10-13T15:59:41;3.20;;;2.17;;
76256;SDS011;65074;50.436;8.672;2023-10-13T16:02:10;5.55;;;2.85;;
76256;SDS011;65074;50.436;8.672;2023-10-13T16:04:37;3.45;;;2.15;;
76256;SDS011;65074;50.436;8.672;2023-10-13T16:07:02;4.47;;;2.25;;